Aviation Digital Data Service (ADDS)

Output produced by METARs form (1425 UTC 30 October 2014)
found at http://aviationweather.gov/adds/metars/
 
KLCH 301353Z 07008KT 10SM CLR 14/09 A3014 RMK AO2 SLP213 T01440089